McMinn County Airport

About

Name: McMinn County Airport
Identifier:  MMI/KMMI
Serves:  Athens, Tennessee
Owner:  McMinn County
Public/Private:  Public
Local Time:  26. Jan 22:15 EST
Description: McMinn County Airport is a county-owned, public-use airport located three nautical miles southeast of the central business district of Athens, a city in McMinn County, Tennessee, United States.
Source: Wikipedia

Location

McMinn County Airport

Runways
Identifier Length (m/ft) Surface
2/20 1,966/6,450 Asphalt

Statistics

Flights Per Day:
0 Flights
Distance: 1,025km (637mi)
Flights Delayed:
0% (0 Flights/Day Delayed)
Average Delay: 13 minutes

Current Weather

 5 C (Humidity: 80%)
  0kt (0km/h / 0mph) from 0°
  Broken clouds at 2,800 feet (853 meter)
  Overcast at 3,700 feet (1,127 meter)
  16km (10 mi.)
 METAR KMMI 270255Z AUTO 00000KT 10SM BKN028 OVC037 05/02 A3002 RMK A01

Claim Compensation

Claim compensation for your flight delay or cancellation
Flight delays happen, but that doesn’t mean you have to accept them. You may be entitled to as much as €600/$700 in compensation if your flight has been delayed, canceled or overbooked within the last three years.

Current Delays

Departures

N/A

Arrivals

N/A

Destinations

Map

Top Destinations

Airport Flights
per week
Seats
per week
  Atlanta (ATL) 0 - 0 0

Airlines & Planes

Top Airlines

Airline Flights
per day
Seats
per day
Central Airlines 0 -

Top Models

model Flights seats
Aero Commander 500-S 0.0/day - 0